createdAt,value
2022-12-12T00:00:15.493Z,96055.41
2022-12-12T00:02:44.317Z,96070.22
2022-12-12T00:05:17.357Z,96062.31
2022-12-12T00:07:46.228Z,96063.72
2022-12-12T00:10:16.216Z,96060.38
2022-12-12T00:12:44.821Z,96065.50
2022-12-12T00:15:13.952Z,96061.75
2022-12-12T00:17:42.550Z,96075.75
2022-12-12T00:20:11.494Z,96068.25
2022-12-12T00:22:39.837Z,96065.09
2022-12-12T00:25:08.971Z,96078.50
2022-12-12T00:27:39.033Z,96070.81
2022-12-12T00:30:09.264Z,96074.56
2022-12-12T00:32:37.765Z,96063.91
2022-12-12T00:35:08.125Z,96067.06
2022-12-12T00:37:36.418Z,96067.84
2022-12-12T00:40:07.591Z,96071.78
2022-12-12T00:42:35.900Z,96057.00
2022-12-12T00:45:06.431Z,96069.22
2022-12-12T00:47:34.982Z,96071.00
2022-12-12T00:50:03.457Z,96068.84
2022-12-12T00:52:31.852Z,96063.91
2022-12-12T00:55:00.274Z,96070.41
2022-12-12T00:57:28.745Z,96065.47
2022-12-12T00:59:56.993Z,96083.38
2022-12-12T01:02:28.460Z,96060.34
2022-12-12T01:04:56.978Z,96078.88
2022-12-12T01:07:25.488Z,96061.72
2022-12-12T01:09:54.266Z,96073.91
2022-12-12T01:12:22.594Z,96077.69
2022-12-12T01:14:53.424Z,96073.91
2022-12-12T01:17:22.053Z,96069.38
2022-12-12T01:19:52.080Z,96081.00
2022-12-12T01:22:20.492Z,96080.63
2022-12-12T01:24:48.773Z,96089.28
2022-12-12T01:27:17.598Z,96093.44
2022-12-12T01:29:45.904Z,96086.31
2022-12-12T01:32:14.857Z,96088.09
2022-12-12T01:34:43.204Z,96103.47
2022-12-12T01:37:13.337Z,96096.81
2022-12-12T01:39:43.874Z,96098.31
2022-12-12T01:42:15.528Z,96101.50
2022-12-12T01:44:48.063Z,96106.44
2022-12-12T01:47:20.018Z,96115.34
2022-12-12T01:49:54.782Z,96109.97
2022-12-12T01:52:30.317Z,96113.28
2022-12-12T01:55:02.549Z,96112.31
2022-12-12T01:57:36.111Z,96114.69
2022-12-12T02:00:09.890Z,96117.03
2022-12-12T02:02:39.839Z,96103.19
2022-12-12T02:05:16.952Z,96112.69
2022-12-12T02:07:46.691Z,96121.72
2022-12-12T02:10:15.117Z,96111.03
2022-12-12T02:12:43.826Z,96115.81
2022-12-12T02:15:13.303Z,96109.00
2022-12-12T02:18:04.098Z,96109.97
2022-12-12T02:21:02.746Z,96117.59
2022-12-12T02:24:28.011Z,96119.47
2022-12-12T02:27:38.317Z,96129.91
2022-12-12T02:30:14.248Z,96122.84
2022-12-12T02:33:14.144Z,96125.72
2022-12-12T02:36:03.081Z,96119.53
2022-12-12T02:38:40.245Z,96116.59
2022-12-12T02:41:19.608Z,96124.16
2022-12-12T02:44:00.984Z,96127.13
2022-12-12T02:46:39.673Z,96127.44
2022-12-12T02:49:16.329Z,96124.56
2022-12-12T02:51:45.607Z,96128.31
2022-12-12T02:54:17.543Z,96119.84
2022-12-12T02:56:52.779Z,96130.13
2022-12-12T02:59:29.323Z,96132.47
2022-12-12T03:02:32.961Z,96131.13
2022-12-12T03:05:52.634Z,96131.50
2022-12-12T03:08:40.741Z,96129.09
2022-12-12T03:11:16.002Z,96127.16
2022-12-12T03:13:51.402Z,96122.06
2022-12-12T03:16:29.046Z,96138.38
2022-12-12T03:19:03.042Z,96140.88
2022-12-12T03:21:40.753Z,96136.59
2022-12-12T03:24:15.467Z,96137.38
2022-12-12T03:26:48.777Z,96135.00
2022-12-12T03:29:21.392Z,96131.66
2022-12-12T03:31:58.283Z,96134.94
2022-12-12T03:34:32.881Z,96139.53
2022-12-12T03:37:09.096Z,96142.13
2022-12-12T03:39:45.542Z,96131.06
2022-12-12T03:42:21.075Z,96141.06
2022-12-12T03:44:54.239Z,96147.22
2022-12-12T03:47:28.692Z,96138.09
2022-12-12T03:50:05.206Z,96135.00
2022-12-12T03:52:40.215Z,96139.94
2022-12-12T03:55:14.727Z,96130.63
2022-12-12T03:57:49.653Z,96152.47
2022-12-12T04:00:18.717Z,96155.72
2022-12-12T04:02:51.963Z,96146.25
2022-12-12T04:05:24.709Z,96142.34
2022-12-12T04:08:04.450Z,96156.75
2022-12-12T04:10:57.745Z,96152.97
2022-12-12T04:13:32.633Z,96150.03
2022-12-12T04:16:07.785Z,96151.19
2022-12-12T04:18:43.501Z,96150.41
2022-12-12T04:21:43.464Z,96151.25
2022-12-12T04:24:24.840Z,96171.97
2022-12-12T04:26:59.856Z,96170.13
2022-12-12T04:29:37.339Z,96155.91
2022-12-12T04:32:16.073Z,96167.00
2022-12-12T04:34:52.184Z,96159.50
2022-12-12T04:37:27.254Z,96185.41
2022-12-12T04:40:01.755Z,96163.28
2022-12-12T04:42:35.601Z,96178.03
2022-12-12T04:45:10.197Z,96182.94
2022-12-12T04:47:41.159Z,96178.91
2022-12-12T04:50:11.735Z,96180.66
2022-12-12T04:52:42.257Z,96187.81
2022-12-12T04:55:16.506Z,96189.09
2022-12-12T04:57:49.784Z,96188.53
2022-12-12T05:00:20.473Z,96196.81
2022-12-12T05:02:55.694Z,96184.75
2022-12-12T05:05:31.230Z,96193.06
2022-12-12T05:08:16.410Z,96200.41
2022-12-12T05:10:51.172Z,96200.59
2022-12-12T05:13:23.774Z,96204.88
2022-12-12T05:15:56.961Z,96207.03
2022-12-12T05:18:26.089Z,96207.25
2022-12-12T05:20:55.266Z,96215.78
2022-12-12T05:23:24.046Z,96212.78
2022-12-12T05:25:54.181Z,96206.81
2022-12-12T05:28:23.596Z,96206.81
2022-12-12T05:30:51.910Z,96205.66
2022-12-12T05:33:20.380Z,96212.16
2022-12-12T05:35:48.939Z,96208.50
2022-12-12T05:38:17.259Z,96215.22
2022-12-12T05:40:46.000Z,96219.09
2022-12-12T05:43:15.775Z,96220.47
2022-12-12T05:45:44.336Z,96225.38
2022-12-12T05:48:13.046Z,96226.59
2022-12-12T05:50:41.679Z,96225.00
2022-12-12T05:53:10.440Z,96235.06
2022-12-12T05:55:38.963Z,96223.00
2022-12-12T05:58:07.228Z,96228.91
2022-12-12T06:00:37.128Z,96225.38
2022-12-12T06:03:05.876Z,96236.38
2022-12-12T06:05:35.326Z,96245.09
2022-12-12T06:08:04.018Z,96245.06
2022-12-12T06:10:32.418Z,96254.31
2022-12-12T06:13:00.873Z,96256.81
2022-12-12T06:15:29.717Z,96248.97
2022-12-12T06:17:59.581Z,96235.53
2022-12-12T06:20:30.478Z,96261.41
2022-12-12T06:22:58.856Z,96258.03
2022-12-12T06:25:27.777Z,96257.19
2022-12-12T06:27:56.110Z,96259.63
2022-12-12T06:30:24.716Z,96252.81
2022-12-12T06:32:53.260Z,96260.09
2022-12-12T06:35:23.762Z,96266.88
2022-12-12T06:37:52.153Z,96261.28
2022-12-12T06:40:20.570Z,96253.63
2022-12-12T06:42:49.113Z,96251.06
2022-12-12T06:45:17.861Z,96257.97
2022-12-12T06:47:46.381Z,96258.56
2022-12-12T06:50:17.860Z,96246.84
2022-12-12T06:52:51.724Z,96250.69
2022-12-12T06:55:20.249Z,96253.25
2022-12-12T06:57:48.778Z,96255.16
2022-12-12T07:00:18.512Z,96255.22
2022-12-12T07:02:47.092Z,96260.34
2022-12-12T07:05:15.781Z,96265.97
2022-12-12T07:07:44.392Z,96266.28
2022-12-12T07:10:14.181Z,96263.97
2022-12-12T07:12:45.476Z,96275.00
2022-12-12T07:15:16.116Z,96271.56
2022-12-12T07:17:44.470Z,96284.81
2022-12-12T07:20:13.005Z,96283.75
2022-12-12T07:22:41.433Z,96276.38
2022-12-12T07:25:10.403Z,96283.38
2022-12-12T07:27:40.396Z,96279.38
2022-12-12T07:30:10.519Z,96282.41
2022-12-12T07:32:38.851Z,96290.25
2022-12-12T07:35:08.212Z,96294.00
2022-12-12T07:37:36.727Z,96292.72
2022-12-12T07:40:06.233Z,96299.50
2022-12-12T07:42:34.817Z,96302.72
2022-12-12T07:45:05.712Z,96314.69
2022-12-12T07:47:34.047Z,96308.22
2022-12-12T07:50:02.369Z,96308.41
2022-12-12T07:52:31.825Z,96316.75
2022-12-12T07:55:01.327Z,96303.78
2022-12-12T07:57:29.991Z,96314.41
2022-12-12T07:59:58.519Z,96317.94
2022-12-12T08:02:28.257Z,96320.88
2022-12-12T08:04:56.855Z,96325.78
2022-12-12T08:07:25.322Z,96330.13
2022-12-12T08:09:53.832Z,96336.97
2022-12-12T08:12:22.248Z,96341.75
2022-12-12T08:14:50.850Z,96348.69
2022-12-12T08:17:19.088Z,96345.22
2022-12-12T08:19:48.846Z,96345.72
2022-12-12T08:22:17.313Z,96351.03
2022-12-12T08:24:45.621Z,96361.06
2022-12-12T08:27:15.976Z,96361.53
2022-12-12T08:29:44.508Z,96362.75
2022-12-12T08:32:13.109Z,96356.84
2022-12-12T08:34:41.689Z,96358.91
2022-12-12T08:37:11.450Z,96359.91
2022-12-12T08:39:40.674Z,96367.19
2022-12-12T08:42:08.955Z,96375.16
2022-12-12T08:44:37.440Z,96369.28
2022-12-12T08:47:06.136Z,96370.91
2022-12-12T08:49:34.461Z,96370.34
2022-12-12T08:52:06.072Z,96372.22
2022-12-12T08:54:35.908Z,96376.84
2022-12-12T08:57:04.569Z,96368.31
2022-12-12T08:59:32.976Z,96391.25
2022-12-12T09:02:01.518Z,96384.06
2022-12-12T09:04:31.069Z,96379.53
2022-12-12T09:07:04.912Z,96395.78
2022-12-12T09:09:37.926Z,96387.72
2022-12-12T09:12:06.979Z,96398.13
2022-12-12T09:14:35.407Z,96396.38
2022-12-12T09:17:04.772Z,96403.47
2022-12-12T09:19:33.259Z,96407.66
2022-12-12T09:22:01.674Z,96405.44
2022-12-12T09:24:29.946Z,96397.81
2022-12-12T09:26:59.742Z,96384.25
2022-12-12T09:29:28.152Z,96400.19
2022-12-12T09:32:00.827Z,96402.81
2022-12-12T09:34:29.527Z,96394.91
2022-12-12T09:36:57.780Z,96397.69
2022-12-12T09:39:26.750Z,96405.22
2022-12-12T09:41:55.233Z,96384.03
2022-12-12T09:44:27.250Z,96396.50
2022-12-12T09:47:00.623Z,96402.88
2022-12-12T09:49:43.236Z,96397.56
2022-12-12T09:52:15.697Z,96403.72
2022-12-12T09:54:44.661Z,96392.00
2022-12-12T09:57:25.031Z,96390.03
2022-12-12T10:00:03.918Z,96393.59
2022-12-12T10:03:01.679Z,96401.34
2022-12-12T10:05:40.976Z,96400.59
2022-12-12T10:08:18.437Z,96399.94
2022-12-12T10:10:50.149Z,96391.91
2022-12-12T10:13:27.298Z,96387.97
2022-12-12T10:16:03.825Z,96383.22
2022-12-12T10:18:36.224Z,96386.97
2022-12-12T10:21:10.817Z,96392.94
2022-12-12T10:23:47.079Z,96382.44
2022-12-12T10:26:19.396Z,96381.03
2022-12-12T10:28:54.539Z,96382.78
2022-12-12T10:31:35.653Z,96376.50
2022-12-12T10:34:24.386Z,96368.03
2022-12-12T10:37:11.544Z,96381.66
2022-12-12T10:39:53.860Z,96377.91
2022-12-12T10:42:29.690Z,96377.69
2022-12-12T10:45:41.733Z,96380.47
2022-12-12T10:48:14.431Z,96392.31
2022-12-12T10:50:46.753Z,96384.63
2022-12-12T10:53:15.681Z,96391.94
2022-12-12T10:55:52.277Z,96402.19
2022-12-12T10:58:25.604Z,96385.22
2022-12-12T11:01:03.051Z,96386.78
2022-12-12T11:03:37.351Z,96394.50
2022-12-12T11:06:11.337Z,96393.88
2022-12-12T11:08:40.855Z,96393.31
2022-12-12T11:11:24.072Z,96383.81
2022-12-12T11:13:55.910Z,96387.56
2022-12-12T11:16:27.647Z,96387.19
2022-12-12T11:19:08.899Z,96377.28
2022-12-12T11:21:39.538Z,96383.97
2022-12-12T11:24:13.790Z,96375.66
2022-12-12T11:26:48.323Z,96375.50
2022-12-12T11:29:32.126Z,96378.81
2022-12-12T11:32:01.425Z,96378.25
2022-12-12T11:34:33.922Z,96380.47
2022-12-12T11:37:02.549Z,96373.69
2022-12-12T11:39:37.709Z,96368.97
2022-12-12T11:42:19.452Z,96362.19
2022-12-12T11:44:50.234Z,96367.91
2022-12-12T11:47:24.143Z,96361.91
2022-12-12T11:49:56.790Z,96374.63
2022-12-12T11:52:28.605Z,96362.13
2022-12-12T11:54:58.980Z,96366.38
2022-12-12T11:57:49.648Z,96363.94
2022-12-12T12:00:35.581Z,96364.59
2022-12-12T12:03:40.449Z,96356.75
2022-12-12T12:06:32.610Z,96344.03
2022-12-12T12:09:23.382Z,96350.06
2022-12-12T12:12:05.787Z,96343.91
2022-12-12T12:15:08.334Z,96354.38
2022-12-12T12:18:11.552Z,96353.00
2022-12-12T12:21:06.419Z,96353.94
2022-12-12T12:23:50.412Z,96349.50
2022-12-12T12:26:25.979Z,96339.91
2022-12-12T12:29:23.139Z,96336.78
2022-12-12T12:32:06.472Z,96341.63
2022-12-12T12:34:48.750Z,96338.91
2022-12-12T12:37:34.162Z,96335.91
2022-12-12T12:40:24.912Z,96340.50
2022-12-12T12:43:17.010Z,96343.66
2022-12-12T12:45:51.067Z,96341.06
2022-12-12T12:48:23.854Z,96333.78
2022-12-12T12:51:03.231Z,96346.69
2022-12-12T12:53:39.213Z,96329.50
2022-12-12T12:56:26.700Z,96321.13
2022-12-12T12:58:59.921Z,96311.19
2022-12-12T13:01:36.227Z,96316.22
2022-12-12T13:04:14.437Z,96316.59
2022-12-12T13:06:50.444Z,96307.63
2022-12-12T13:09:30.167Z,96299.91
2022-12-12T13:12:08.147Z,96295.41
2022-12-12T13:14:46.071Z,96293.84
2022-12-12T13:17:21.790Z,96299.03
2022-12-12T13:19:54.700Z,96301.56
2022-12-12T13:22:34.500Z,96311.25
2022-12-12T13:25:12.521Z,96303.84
2022-12-12T13:27:46.715Z,96293.44
2022-12-12T13:30:23.649Z,96284.34
2022-12-12T13:33:14.331Z,96284.13
2022-12-12T13:35:48.293Z,96288.50
2022-12-12T13:38:21.652Z,96287.91
2022-12-12T13:41:00.979Z,96289.31
2022-12-12T13:43:43.846Z,96293.06
2022-12-12T13:46:41.134Z,96297.06
2022-12-12T13:49:28.989Z,96272.88
2022-12-12T13:52:28.357Z,96276.28
2022-12-12T13:55:24.368Z,96273.31
2022-12-12T13:58:19.483Z,96270.94
2022-12-12T14:00:49.647Z,96281.63
2022-12-12T14:03:31.880Z,96276.53
2022-12-12T14:06:12.642Z,96268.28
2022-12-12T14:08:50.483Z,96274.00
2022-12-12T14:11:34.887Z,96262.34
2022-12-12T14:14:22.644Z,96262.16
2022-12-12T14:16:58.039Z,96264.53
2022-12-12T14:19:32.897Z,96262.19
2022-12-12T14:22:01.291Z,96262.75
2022-12-12T14:25:06.543Z,96280.91
2022-12-12T14:28:18.009Z,96262.75
2022-12-12T14:31:00.505Z,96254.28
2022-12-12T14:34:05.110Z,96252.09
2022-12-12T14:37:08.607Z,96246.34
2022-12-12T14:40:01.366Z,96259.38
2022-12-12T14:43:19.478Z,96257.22
2022-12-12T14:45:37.337Z,96250.06
2022-12-12T14:48:22.003Z,96246.94
2022-12-12T14:50:57.881Z,96246.88
2022-12-12T14:53:30.296Z,96253.59
2022-12-12T14:56:02.210Z,96264.78
2022-12-12T14:58:33.494Z,96264.38
2022-12-12T15:01:05.533Z,96263.97
2022-12-12T15:03:36.906Z,96261.03
2022-12-12T15:06:34.075Z,96266.34
2022-12-12T15:09:31.631Z,96273.84
2022-12-12T15:12:15.438Z,96272.47
2022-12-12T15:14:56.120Z,96274.50
2022-12-12T15:17:28.810Z,96269.34
2022-12-12T15:20:00.850Z,96266.81
2022-12-12T15:22:33.807Z,96259.88
2022-12-12T15:25:04.936Z,96257.88
2022-12-12T15:27:41.566Z,96240.66
2022-12-12T15:30:31.250Z,96240.78
2022-12-12T15:33:02.206Z,96239.16
2022-12-12T15:35:30.851Z,96236.38
2022-12-12T15:38:06.750Z,96228.84
2022-12-12T15:40:36.344Z,96234.06
2022-12-12T15:43:08.832Z,96234.81
2022-12-12T15:45:40.161Z,96234.38
2022-12-12T15:48:16.000Z,96229.66
2022-12-12T15:50:57.983Z,96233.88
2022-12-12T15:53:30.184Z,96238.31
2022-12-12T15:56:02.136Z,96235.53
2022-12-12T15:58:34.796Z,96243.56
2022-12-12T16:01:20.954Z,96230.56
2022-12-12T16:04:00.067Z,96233.84
2022-12-12T16:06:31.193Z,96229.88
2022-12-12T16:09:18.535Z,96231.78
2022-12-12T16:11:48.569Z,96229.88
2022-12-12T16:14:40.185Z,96228.06
2022-12-12T16:17:14.200Z,96240.44
2022-12-12T16:19:57.129Z,96232.16
2022-12-12T16:22:35.169Z,96236.41
2022-12-12T16:25:18.550Z,96234.22
2022-12-12T16:27:49.356Z,96230.88
2022-12-12T16:30:18.164Z,96232.66
2022-12-12T16:32:46.782Z,96234.06
2022-12-12T16:35:20.367Z,96236.66
2022-12-12T16:37:49.165Z,96234.91
2022-12-12T16:40:21.241Z,96239.09
2022-12-12T16:42:58.105Z,96237.63
2022-12-12T16:45:26.928Z,96236.59
2022-12-12T16:47:55.442Z,96239.16
2022-12-12T16:50:23.935Z,96226.56
2022-12-12T16:52:52.465Z,96236.00
2022-12-12T16:55:25.013Z,96235.81
2022-12-12T16:57:54.345Z,96240.28
2022-12-12T17:00:22.969Z,96234.22
2022-12-12T17:02:53.450Z,96240.06
2022-12-12T17:05:25.175Z,96248.50
2022-12-12T17:07:54.638Z,96242.78
2022-12-12T17:10:26.506Z,96243.41
2022-12-12T17:12:55.696Z,96242.13
2022-12-12T17:15:28.227Z,96236.75
2022-12-12T17:17:58.466Z,96240.38
2022-12-12T17:20:28.686Z,96255.44
2022-12-12T17:26:00.665Z,96242.97
2022-12-12T17:28:30.316Z,96223.19
2022-12-12T17:30:58.712Z,96230.47
2022-12-12T17:33:27.203Z,96249.41
2022-12-12T17:36:01.039Z,96250.78
2022-12-12T17:38:30.366Z,96236.09
2022-12-12T17:41:05.316Z,96235.50
2022-12-12T17:43:34.836Z,96236.63
2022-12-12T17:46:06.124Z,96229.16
2022-12-12T17:48:37.527Z,96233.03
2022-12-12T17:51:08.532Z,96230.31
2022-12-12T17:53:38.995Z,96228.28
2022-12-12T17:56:11.925Z,96225.84
2022-12-12T17:58:42.905Z,96216.59
2022-12-12T18:01:12.888Z,96214.72
2022-12-12T18:03:41.676Z,96214.38
2022-12-12T18:06:12.124Z,96215.63
2022-12-12T18:08:41.651Z,96213.44
2022-12-12T18:11:14.250Z,96202.69
2022-12-12T18:13:43.924Z,96202.69
2022-12-12T18:16:14.319Z,96201.56
2022-12-12T18:18:43.269Z,96203.38
2022-12-12T18:21:29.236Z,96214.47
2022-12-12T18:24:05.254Z,96214.38
2022-12-12T18:26:35.200Z,96230.03
2022-12-12T18:29:06.381Z,96219.56
2022-12-12T18:31:37.227Z,96213.25
2022-12-12T18:34:08.502Z,96216.22
2022-12-12T18:36:37.288Z,96218.06
2022-12-12T18:39:06.997Z,96209.19
2022-12-12T18:41:37.912Z,96196.69
2022-12-12T18:44:08.491Z,96200.03
2022-12-12T18:46:42.849Z,96189.31
2022-12-12T18:49:15.000Z,96200.84
2022-12-12T18:51:45.240Z,96187.47
2022-12-12T18:54:16.267Z,96190.19
2022-12-12T18:56:48.070Z,96186.50
2022-12-12T18:59:17.416Z,96186.16
2022-12-12T19:01:48.227Z,96193.03
2022-12-12T19:04:22.811Z,96181.16
2022-12-12T19:06:52.568Z,96185.56
2022-12-12T19:09:22.177Z,96180.81
2022-12-12T19:11:56.892Z,96182.22
2022-12-12T19:15:15.316Z,96193.09
2022-12-12T19:17:26.166Z,96182.28
2022-12-12T19:19:56.764Z,96197.09
2022-12-12T19:25:15.206Z,96188.53
2022-12-12T19:27:45.761Z,96176.16
2022-12-12T19:30:16.832Z,96176.88
2022-12-12T19:32:48.927Z,96172.06
2022-12-12T19:35:17.911Z,96154.84
2022-12-12T19:37:46.631Z,96150.19
2022-12-12T19:40:15.800Z,96150.38
2022-12-12T19:42:46.079Z,96157.13
2022-12-12T19:45:14.864Z,96159.59
2022-12-12T19:47:43.848Z,96149.31
2022-12-12T19:50:12.943Z,96148.78
2022-12-12T19:52:41.811Z,96163.38
2022-12-12T19:55:11.224Z,96164.88
2022-12-12T19:57:39.813Z,96164.69
2022-12-12T20:00:12.709Z,96161.78
2022-12-12T20:02:41.344Z,96154.84
2022-12-12T20:05:11.580Z,96163.28
2022-12-12T20:07:41.102Z,96174.00
2022-12-12T20:10:10.946Z,96165.03
2022-12-12T20:12:44.272Z,96163.63
2022-12-12T20:15:21.984Z,96159.78
2022-12-12T20:17:50.427Z,96153.00
2022-12-12T20:20:18.969Z,96161.97
2022-12-12T20:22:47.485Z,96142.72
2022-12-12T20:25:15.879Z,96154.00
2022-12-12T20:27:45.524Z,96148.19
2022-12-12T20:30:14.457Z,96149.22
2022-12-12T20:32:45.556Z,96143.34
2022-12-12T20:35:14.131Z,96144.56
2022-12-12T20:37:42.587Z,96148.72
2022-12-12T20:40:13.539Z,96139.66
2022-12-12T20:42:42.297Z,96138.06
2022-12-12T20:45:12.280Z,96147.44
2022-12-12T20:47:41.093Z,96148.94
2022-12-12T20:50:13.569Z,96154.47
2022-12-12T20:52:42.285Z,96157.09
2022-12-12T20:55:12.323Z,96167.63
2022-12-12T20:57:44.161Z,96153.31
2022-12-12T21:00:14.953Z,96162.59
2022-12-12T21:02:47.051Z,96156.94
2022-12-12T21:05:17.391Z,96152.50
2022-12-12T21:07:45.919Z,96157.34
2022-12-12T21:10:16.997Z,96159.75
2022-12-12T21:12:47.729Z,96149.19
2022-12-12T21:15:16.599Z,96151.03
2022-12-12T21:17:45.448Z,96145.16
2022-12-12T21:20:13.913Z,96144.44
2022-12-12T21:22:43.717Z,96138.00
2022-12-12T21:25:12.645Z,96137.41
2022-12-12T21:27:41.632Z,96130.47
2022-12-12T21:30:11.616Z,96133.97
2022-12-12T21:32:40.144Z,96128.09
2022-12-12T21:35:09.882Z,96132.22
2022-12-12T21:37:40.609Z,96126.16
2022-12-12T21:40:14.631Z,96116.84
2022-12-12T21:42:43.741Z,96129.16
2022-12-12T21:45:15.673Z,96122.75
2022-12-12T21:47:44.276Z,96110.81
2022-12-12T21:50:13.795Z,96121.34
2022-12-12T21:52:42.434Z,96119.09
2022-12-12T21:55:12.863Z,96114.25
2022-12-12T21:57:41.807Z,96110.22
2022-12-12T22:00:17.414Z,96110.09
2022-12-12T22:02:49.997Z,96106.69
2022-12-12T22:05:19.420Z,96110.66
2022-12-12T22:07:48.223Z,96122.50
2022-12-12T22:10:18.639Z,96119.94
2022-12-12T22:12:57.172Z,96120.50
2022-12-12T22:15:26.522Z,96113.13
2022-12-12T22:17:55.623Z,96120.34
2022-12-12T22:20:24.747Z,96122.94
2022-12-12T22:22:55.475Z,96122.00
2022-12-12T22:25:25.701Z,96115.84
2022-12-12T22:27:53.978Z,96123.47
2022-12-12T22:30:23.178Z,96117.75
2022-12-12T22:32:51.557Z,96125.66
2022-12-12T22:35:20.565Z,96110.91
2022-12-12T22:37:49.022Z,96107.47
2022-12-12T22:40:17.760Z,96102.53
2022-12-12T22:42:47.519Z,96101.41
2022-12-12T22:45:16.525Z,96079.72
2022-12-12T22:47:45.236Z,96093.78
2022-12-12T22:50:13.968Z,96093.06
2022-12-12T22:52:44.020Z,96097.72
2022-12-12T22:55:12.502Z,96097.63
2022-12-12T22:57:43.886Z,96094.91
2022-12-12T23:00:16.342Z,96096.75
2022-12-12T23:02:44.669Z,96100.44
2022-12-12T23:05:14.119Z,96092.50
2022-12-12T23:07:42.993Z,96084.97
2022-12-12T23:10:12.093Z,96083.16
2022-12-12T23:12:40.982Z,96077.72
2022-12-12T23:15:10.759Z,96082.78
2022-12-12T23:17:42.845Z,96084.47
2022-12-12T23:20:14.004Z,96065.69
2022-12-12T23:22:46.433Z,96070.50
2022-12-12T23:25:15.937Z,96052.94
2022-12-12T23:27:45.577Z,96064.78
2022-12-12T23:30:14.278Z,96053.34
2022-12-12T23:32:43.929Z,96064.44
2022-12-12T23:35:12.693Z,96063.28
2022-12-12T23:37:42.596Z,96068.38
2022-12-12T23:40:12.714Z,96061.59
2022-12-12T23:42:41.126Z,96051.38
2022-12-12T23:45:11.004Z,96063.56
2022-12-12T23:47:39.529Z,96051.44
2022-12-12T23:50:10.943Z,96057.59
2022-12-12T23:52:39.518Z,96044.50
2022-12-12T23:55:09.115Z,96050.75
2022-12-12T23:57:37.867Z,96045.22
